createdAt,value
2023-01-05T00:01:59.001Z,18.42
2023-01-05T00:04:26.430Z,19.35
2023-01-05T00:06:53.868Z,21.02
2023-01-05T00:09:22.442Z,19.35
2023-01-05T00:12:08.219Z,16.95
2023-01-05T00:14:54.428Z,18.40
2023-01-05T00:17:42.029Z,16.60
2023-01-05T00:20:40.060Z,17.27
2023-01-05T00:23:08.449Z,21.02
2023-01-05T00:25:41.004Z,16.08
2023-01-05T00:28:08.950Z,18.50
2023-01-05T00:30:42.607Z,19.63
2023-01-05T00:33:11.396Z,16.40
2023-01-05T00:35:39.498Z,16.17
2023-01-05T00:38:08.607Z,16.55
2023-01-05T00:40:36.820Z,15.75
2023-01-05T00:43:04.436Z,18.02
2023-01-05T00:45:32.068Z,15.80
2023-01-05T00:47:59.425Z,18.08
2023-01-05T00:50:26.990Z,17.13
2023-01-05T00:52:54.341Z,14.88
2023-01-05T00:55:21.897Z,17.88
2023-01-05T00:57:49.295Z,16.15
2023-01-05T01:00:19.484Z,19.00
2023-01-05T01:02:47.453Z,15.88
2023-01-05T01:05:14.977Z,20.30
2023-01-05T01:07:42.314Z,16.90
2023-01-05T01:10:11.177Z,16.27
2023-01-05T01:12:38.567Z,15.50
2023-01-05T01:15:07.412Z,16.15
2023-01-05T01:17:35.062Z,15.38
2023-01-05T01:20:02.382Z,15.60
2023-01-05T01:22:29.804Z,18.40
2023-01-05T01:24:57.153Z,17.48
2023-01-05T01:27:24.469Z,17.58
2023-01-05T01:29:51.846Z,15.68
2023-01-05T01:32:19.138Z,14.55
2023-01-05T01:34:46.469Z,16.02
2023-01-05T01:37:13.923Z,14.70
2023-01-05T01:39:41.267Z,17.30
2023-01-05T01:42:14.245Z,14.25
2023-01-05T01:45:02.692Z,14.88
2023-01-05T01:47:33.441Z,16.08
2023-01-05T01:50:06.510Z,15.35
2023-01-05T01:52:35.938Z,15.25
2023-01-05T01:55:05.908Z,14.25
2023-01-05T01:57:34.964Z,14.52
2023-01-05T02:00:05.450Z,14.35
2023-01-05T02:02:32.944Z,13.45
2023-01-05T02:05:04.925Z,16.30
2023-01-05T02:07:34.780Z,10.65
2023-01-05T02:10:04.550Z,14.68
2023-01-05T02:13:19.012Z,14.02
2023-01-05T02:16:07.005Z,13.15
2023-01-05T02:18:47.418Z,13.18
2023-01-05T02:21:45.225Z,13.98
2023-01-05T02:24:24.702Z,13.77
2023-01-05T02:27:16.252Z,11.65
2023-01-05T02:29:52.282Z,12.82
2023-01-05T02:32:31.248Z,14.13
2023-01-05T02:35:35.963Z,13.10
2023-01-05T02:38:18.555Z,11.38
2023-01-05T02:40:54.058Z,13.95
2023-01-05T02:43:21.548Z,12.77
2023-01-05T02:45:50.091Z,12.15
2023-01-05T02:48:17.385Z,12.07
2023-01-05T02:51:01.125Z,12.18
2023-01-05T02:53:40.408Z,11.03
2023-01-05T02:56:18.455Z,12.05
2023-01-05T02:58:58.249Z,9.63
2023-01-05T03:01:31.310Z,9.80
2023-01-05T03:04:04.182Z,9.20
2023-01-05T03:06:57.384Z,10.13
2023-01-05T03:09:29.097Z,10.55
2023-01-05T03:12:32.553Z,10.77
2023-01-05T03:15:11.835Z,13.57
2023-01-05T03:17:46.609Z,10.02
2023-01-05T03:20:16.635Z,8.15
2023-01-05T03:23:04.258Z,11.13
2023-01-05T03:25:52.379Z,11.43
2023-01-05T03:28:59.927Z,8.95
2023-01-05T03:31:58.299Z,9.20
2023-01-05T03:34:48.379Z,9.32
2023-01-05T03:37:22.174Z,11.57
2023-01-05T03:39:49.849Z,9.50
2023-01-05T03:42:17.505Z,9.75
2023-01-05T03:44:46.298Z,8.95
2023-01-05T03:47:14.551Z,11.20
2023-01-05T03:49:42.198Z,6.90
2023-01-05T03:52:09.553Z,7.70
2023-01-05T03:54:36.933Z,8.55
2023-01-05T03:57:04.278Z,8.68
2023-01-05T03:59:31.646Z,9.80
2023-01-05T04:01:59.096Z,8.98
2023-01-05T04:04:26.520Z,11.25
2023-01-05T04:06:53.801Z,8.63
2023-01-05T04:09:21.187Z,7.57
2023-01-05T04:11:48.563Z,8.82
2023-01-05T04:14:15.855Z,12.85
2023-01-05T04:16:43.230Z,11.07
2023-01-05T04:19:11.316Z,9.05
2023-01-05T04:21:38.608Z,11.07
2023-01-05T04:24:06.336Z,11.10
2023-01-05T04:26:33.607Z,10.15
2023-01-05T04:29:01.052Z,12.13
2023-01-05T04:31:28.418Z,13.75
2023-01-05T04:33:55.862Z,7.75
2023-01-05T04:36:23.234Z,9.35
2023-01-05T04:38:50.543Z,11.10
2023-01-05T04:41:17.895Z,10.35
2023-01-05T04:43:45.319Z,7.07
2023-01-05T04:46:12.682Z,7.63
2023-01-05T04:48:39.937Z,10.65
2023-01-05T04:51:07.432Z,8.77
2023-01-05T04:53:34.838Z,8.60
2023-01-05T04:56:02.177Z,8.57
2023-01-05T04:58:30.691Z,9.52
2023-01-05T05:00:58.058Z,8.68
2023-01-05T05:03:31.099Z,8.93
2023-01-05T05:06:00.358Z,9.13
2023-01-05T05:08:28.019Z,10.05
2023-01-05T05:10:55.313Z,9.20
2023-01-05T05:13:22.737Z,10.68
2023-01-05T05:15:50.279Z,10.85
2023-01-05T05:18:17.973Z,8.45
2023-01-05T05:20:48.975Z,9.68
2023-01-05T05:23:16.360Z,11.13
2023-01-05T05:25:43.659Z,6.80
2023-01-05T05:28:11.212Z,10.32
2023-01-05T05:30:39.132Z,9.63
2023-01-05T05:33:06.773Z,7.40
2023-01-05T05:35:34.109Z,7.88
2023-01-05T05:38:01.604Z,9.93
2023-01-05T05:40:29.241Z,11.00
2023-01-05T05:42:56.584Z,9.50
2023-01-05T05:45:23.898Z,9.23
2023-01-05T05:47:51.207Z,9.68
2023-01-05T05:50:18.501Z,8.15
2023-01-05T05:52:45.919Z,10.98
2023-01-05T05:55:13.268Z,10.65
2023-01-05T05:57:40.560Z,7.45
2023-01-05T06:00:08.493Z,8.15
2023-01-05T06:02:35.951Z,7.35
2023-01-05T06:05:03.376Z,8.48
2023-01-05T06:07:30.742Z,11.77
2023-01-05T06:09:58.069Z,11.18
2023-01-05T06:12:25.587Z,10.40
2023-01-05T06:14:53.015Z,9.15
2023-01-05T06:17:20.380Z,9.23
2023-01-05T06:19:47.705Z,7.68
2023-01-05T06:22:15.032Z,7.97
2023-01-05T06:24:42.541Z,10.43
2023-01-05T06:27:11.100Z,10.80
2023-01-05T06:29:38.604Z,11.77
2023-01-05T06:32:06.091Z,9.68
2023-01-05T06:34:33.577Z,9.32
2023-01-05T06:37:02.554Z,9.02
2023-01-05T06:39:30.125Z,10.13
2023-01-05T06:41:57.490Z,11.70
2023-01-05T06:44:24.843Z,8.70
2023-01-05T06:46:52.143Z,9.82
2023-01-05T06:49:19.523Z,10.55
2023-01-05T06:51:47.020Z,9.57
2023-01-05T06:54:14.475Z,10.68
2023-01-05T06:56:41.905Z,9.95
2023-01-05T06:59:10.974Z,8.90
2023-01-05T07:01:38.636Z,7.88
2023-01-05T07:04:06.124Z,7.72
2023-01-05T07:06:36.017Z,10.25
2023-01-05T07:09:03.620Z,9.52
2023-01-05T07:11:30.977Z,6.25
2023-01-05T07:13:58.242Z,5.65
2023-01-05T07:16:25.751Z,8.88
2023-01-05T07:18:53.251Z,8.32
2023-01-05T07:21:20.662Z,11.68
2023-01-05T07:23:48.036Z,6.10
2023-01-05T07:26:15.367Z,10.05
2023-01-05T07:28:42.774Z,9.82
2023-01-05T07:31:10.090Z,8.23
2023-01-05T07:33:40.033Z,9.38
2023-01-05T07:36:08.222Z,11.38
2023-01-05T07:38:35.560Z,8.80
2023-01-05T07:41:03.675Z,10.30
2023-01-05T07:43:31.047Z,8.75
2023-01-05T07:46:00.127Z,11.68
2023-01-05T07:48:28.371Z,8.82
2023-01-05T07:51:05.754Z,7.32
2023-01-05T07:53:43.909Z,9.60
2023-01-05T07:56:12.963Z,7.38
2023-01-05T07:58:40.748Z,8.45
2023-01-05T08:01:11.958Z,9.32
2023-01-05T08:03:39.906Z,10.05
2023-01-05T08:06:09.157Z,7.30
2023-01-05T08:08:36.752Z,9.20
2023-01-05T08:11:06.087Z,9.27
2023-01-05T08:13:52.225Z,9.35
2023-01-05T08:16:19.885Z,11.43
2023-01-05T08:18:47.455Z,8.68
2023-01-05T08:21:15.173Z,11.00
2023-01-05T08:23:42.495Z,9.23
2023-01-05T08:26:16.490Z,8.32
2023-01-05T08:28:44.319Z,12.55
2023-01-05T08:31:15.520Z,9.52
2023-01-05T08:33:43.052Z,11.05
2023-01-05T08:36:15.590Z,7.55
2023-01-05T08:38:49.321Z,10.10
2023-01-05T08:41:24.476Z,9.00
2023-01-05T08:43:56.751Z,11.07
2023-01-05T08:46:26.326Z,8.50
2023-01-05T08:48:56.242Z,10.45
2023-01-05T08:51:23.668Z,8.50
2023-01-05T08:53:51.525Z,11.30
2023-01-05T08:56:19.260Z,9.32
2023-01-05T08:58:46.661Z,10.82
2023-01-05T09:01:16.954Z,8.73
2023-01-05T09:03:44.834Z,10.07
2023-01-05T09:06:12.972Z,7.70
2023-01-05T09:08:42.026Z,7.97
2023-01-05T09:11:15.747Z,9.63
2023-01-05T09:13:47.774Z,10.47
2023-01-05T09:16:35.186Z,8.77
2023-01-05T09:19:06.772Z,9.43
2023-01-05T09:21:34.182Z,10.00
2023-01-05T09:24:01.507Z,8.50
2023-01-05T09:26:28.909Z,8.02
2023-01-05T09:28:56.287Z,8.75
2023-01-05T09:31:24.079Z,9.82
2023-01-05T09:33:51.822Z,10.68
2023-01-05T09:36:20.331Z,11.38
2023-01-05T09:38:54.435Z,8.88
2023-01-05T09:41:35.508Z,10.40
2023-01-05T09:44:44.054Z,10.35
2023-01-05T09:47:15.365Z,9.82
2023-01-05T09:49:43.294Z,11.88
2023-01-05T09:52:12.285Z,12.48
2023-01-05T09:54:40.687Z,9.18
2023-01-05T09:57:17.477Z,10.40
2023-01-05T09:59:49.315Z,11.77
2023-01-05T10:02:30.685Z,9.43
2023-01-05T10:04:59.711Z,10.07
2023-01-05T10:07:54.301Z,11.45
2023-01-05T10:10:30.163Z,10.60
2023-01-05T10:13:05.565Z,9.52
2023-01-05T10:18:15.444Z,11.85
2023-01-05T10:21:12.453Z,10.10
2023-01-05T10:23:48.631Z,10.27
2023-01-05T10:26:51.056Z,13.98
2023-01-05T10:29:30.679Z,9.15
2023-01-05T10:32:25.996Z,12.77
2023-01-05T10:35:09.298Z,14.85
2023-01-05T10:38:21.859Z,14.88
2023-01-05T10:41:03.117Z,10.85
2023-01-05T10:44:03.307Z,11.13
2023-01-05T10:46:37.763Z,15.00
2023-01-05T10:49:09.246Z,12.35
2023-01-05T10:51:37.389Z,10.63
2023-01-05T10:54:05.739Z,11.30
2023-01-05T10:56:33.215Z,12.20
2023-01-05T10:59:11.960Z,12.55
2023-01-05T11:01:45.959Z,11.48
2023-01-05T11:04:34.384Z,12.43
2023-01-05T11:07:05.544Z,11.25
2023-01-05T11:09:33.889Z,12.10
2023-01-05T11:12:03.322Z,12.02
2023-01-05T11:14:36.211Z,12.65
2023-01-05T11:17:15.673Z,12.10
2023-01-05T11:19:46.832Z,12.80
2023-01-05T11:22:36.161Z,13.15
2023-01-05T11:25:33.372Z,10.98
2023-01-05T11:28:17.825Z,12.18
2023-01-05T11:31:05.884Z,13.90
2023-01-05T11:33:39.617Z,13.40
2023-01-05T11:36:07.489Z,14.25
2023-01-05T11:38:35.474Z,12.25
2023-01-05T11:41:03.048Z,13.48
2023-01-05T11:43:32.989Z,12.82
2023-01-05T11:46:03.380Z,11.15
2023-01-05T11:48:33.673Z,12.70
2023-01-05T11:51:02.741Z,15.90
2023-01-05T11:53:37.921Z,12.05
2023-01-05T11:56:21.714Z,11.52
2023-01-05T11:58:51.933Z,11.88
2023-01-05T12:01:40.613Z,14.48
2023-01-05T12:04:24.007Z,11.02
2023-01-05T12:07:04.879Z,11.18
2023-01-05T12:09:39.497Z,14.52
2023-01-05T12:14:48.681Z,12.85
2023-01-05T12:17:25.166Z,12.38
2023-01-05T12:20:30.148Z,11.50
2023-01-05T12:23:12.246Z,12.55
2023-01-05T12:26:19.575Z,12.35
2023-01-05T12:35:29.833Z,14.02
2023-01-05T12:38:26.704Z,12.63
2023-01-05T12:41:18.356Z,17.10
2023-01-05T12:43:53.595Z,12.68
2023-01-05T12:46:33.222Z,11.68
2023-01-05T12:49:06.178Z,13.00
2023-01-05T12:51:52.779Z,12.02
2023-01-05T12:54:30.086Z,13.77
2023-01-05T12:57:15.274Z,12.27
2023-01-05T12:59:51.393Z,11.77
2023-01-05T13:02:44.682Z,10.77
2023-01-05T13:05:31.174Z,13.07
2023-01-05T13:08:17.572Z,12.70
2023-01-05T13:11:02.924Z,10.88
2023-01-05T13:13:37.133Z,10.88
2023-01-05T13:16:27.334Z,13.25
2023-01-05T13:19:20.598Z,12.85
2023-01-05T13:21:48.661Z,15.85
2023-01-05T13:24:31.285Z,13.07
2023-01-05T13:27:01.499Z,13.15
2023-01-05T13:29:39.094Z,15.32
2023-01-05T13:32:19.125Z,13.98
2023-01-05T13:35:14.235Z,15.65
2023-01-05T13:40:37.393Z,14.75
2023-01-05T13:43:21.000Z,15.40
2023-01-05T13:46:27.514Z,14.02
2023-01-05T13:49:29.950Z,14.18
2023-01-05T13:52:10.700Z,14.55
2023-01-05T13:54:54.435Z,14.43
2023-01-05T13:57:27.426Z,14.55
2023-01-05T14:00:08.309Z,12.05
2023-01-05T14:02:44.352Z,15.63
2023-01-05T14:05:24.635Z,14.43
2023-01-05T14:07:54.227Z,15.43
2023-01-05T14:10:28.928Z,14.32
2023-01-05T14:15:38.560Z,15.63
2023-01-05T14:18:07.658Z,13.35
2023-01-05T14:20:46.897Z,15.18
2023-01-05T14:23:26.286Z,16.15
2023-01-05T14:26:01.115Z,15.10
2023-01-05T14:28:33.491Z,16.77
2023-01-05T14:31:18.986Z,15.07
2023-01-05T14:34:00.796Z,16.05
2023-01-05T14:36:39.526Z,15.82
2023-01-05T14:39:32.275Z,15.93
2023-01-05T14:42:06.879Z,16.38
2023-01-05T14:47:05.838Z,15.30
2023-01-05T14:49:38.029Z,15.55
2023-01-05T14:52:15.151Z,17.10
2023-01-05T14:54:42.363Z,16.05
2023-01-05T14:57:30.992Z,14.70
2023-01-05T15:00:04.305Z,16.27
2023-01-05T15:02:37.770Z,14.55
2023-01-05T15:05:16.038Z,14.48
2023-01-05T15:08:05.086Z,14.77
2023-01-05T15:10:42.853Z,16.80
2023-01-05T15:13:31.172Z,15.65
2023-01-05T15:16:03.429Z,15.05
2023-01-05T15:18:45.994Z,14.70
2023-01-05T15:21:16.043Z,13.52
2023-01-05T15:24:02.522Z,13.90
2023-01-05T15:26:47.969Z,15.02
2023-01-05T15:29:26.983Z,13.55
2023-01-05T15:31:59.110Z,13.95
2023-01-05T15:35:00.432Z,16.08
2023-01-05T15:37:41.657Z,14.65
2023-01-05T15:40:29.148Z,15.95
2023-01-05T15:43:03.841Z,14.05
2023-01-05T15:48:16.877Z,13.27
2023-01-05T15:50:49.785Z,14.98
2023-01-05T15:53:28.399Z,14.20
2023-01-05T15:55:56.801Z,16.08
2023-01-05T15:58:26.176Z,12.43
2023-01-05T16:01:15.192Z,12.68
2023-01-05T16:03:45.854Z,12.80
2023-01-05T16:06:25.296Z,13.85
2023-01-05T16:08:55.561Z,12.82
2023-01-05T16:11:36.935Z,11.68
2023-01-05T16:14:10.688Z,12.52
2023-01-05T16:16:54.084Z,12.47
2023-01-05T16:19:32.323Z,13.48
2023-01-05T16:22:11.600Z,14.18
2023-01-05T16:24:53.917Z,11.80
2023-01-05T16:27:21.894Z,11.00
2023-01-05T16:29:50.006Z,11.40
2023-01-05T16:32:36.895Z,11.18
2023-01-05T16:35:55.221Z,11.70
2023-01-05T16:38:29.116Z,10.50
2023-01-05T16:41:09.947Z,10.43
2023-01-05T16:43:41.901Z,10.07
2023-01-05T16:46:23.909Z,11.52
2023-01-05T16:49:23.946Z,10.00
2023-01-05T16:51:52.012Z,9.70
2023-01-05T16:54:24.657Z,9.07
2023-01-05T16:56:59.455Z,9.90
2023-01-05T16:59:42.064Z,9.30
2023-01-05T17:02:35.140Z,10.60
2023-01-05T17:05:03.540Z,9.23
2023-01-05T17:07:30.873Z,9.70
2023-01-05T17:09:58.236Z,10.95
2023-01-05T17:12:25.880Z,9.05
2023-01-05T17:14:54.793Z,10.82
2023-01-05T17:17:23.966Z,11.90
2023-01-05T17:19:54.220Z,10.05
2023-01-05T17:22:21.986Z,11.75
2023-01-05T17:24:49.475Z,10.13
2023-01-05T17:27:16.863Z,8.50
2023-01-05T17:29:44.142Z,8.63
2023-01-05T17:32:11.752Z,9.32
2023-01-05T17:34:41.085Z,10.15
2023-01-05T17:37:11.248Z,9.43
2023-01-05T17:39:38.529Z,8.65
2023-01-05T17:42:24.210Z,8.40
2023-01-05T17:44:52.085Z,9.93
2023-01-05T17:47:19.454Z,7.75
2023-01-05T17:49:46.796Z,8.20
2023-01-05T17:52:14.199Z,6.78
2023-01-05T17:54:42.424Z,8.10
2023-01-05T17:57:12.977Z,7.60
2023-01-05T18:02:09.433Z,7.47
2023-01-05T18:04:36.782Z,7.72
2023-01-05T18:07:04.262Z,8.02
2023-01-05T18:09:33.740Z,9.40
2023-01-05T18:12:01.263Z,8.07
2023-01-05T18:14:28.893Z,25.02
2023-01-05T18:16:56.265Z,21.33
2023-01-05T18:19:24.250Z,21.83
2023-01-05T18:21:51.717Z,24.13
2023-01-05T18:24:19.142Z,28.63
2023-01-05T18:26:49.408Z,27.15
2023-01-05T18:29:19.943Z,37.08
2023-01-05T18:31:47.535Z,33.47
2023-01-05T18:34:15.079Z,34.80
2023-01-05T18:36:42.634Z,26.08
2023-01-05T18:39:10.059Z,33.60
2023-01-05T18:41:37.467Z,28.23
2023-01-05T18:44:05.062Z,29.77
2023-01-05T18:46:32.595Z,30.48
2023-01-05T18:49:00.130Z,28.42
2023-01-05T18:51:27.532Z,33.38
2023-01-05T18:53:54.939Z,25.65
2023-01-05T18:56:22.353Z,34.92
2023-01-05T18:58:52.222Z,35.80
2023-01-05T19:01:20.847Z,41.35
2023-01-05T19:03:50.600Z,38.53
2023-01-05T19:06:21.077Z,29.25
2023-01-05T19:08:49.344Z,31.40
2023-01-05T19:11:24.980Z,24.70
2023-01-05T19:13:57.536Z,26.55
2023-01-05T19:16:27.792Z,23.95
2023-01-05T19:18:59.276Z,24.48
2023-01-05T19:21:29.395Z,22.45
2023-01-05T19:23:58.732Z,17.13
2023-01-05T19:26:31.597Z,21.30
2023-01-05T19:29:04.077Z,19.48
2023-01-05T19:31:32.158Z,26.20
2023-01-05T19:33:59.533Z,22.63
2023-01-05T19:36:35.593Z,33.67
2023-01-05T19:39:13.983Z,25.58
2023-01-05T19:41:45.072Z,30.55
2023-01-05T19:44:16.144Z,27.65
2023-01-05T19:46:44.660Z,32.67
2023-01-05T19:49:20.937Z,26.65
2023-01-05T19:51:48.753Z,27.95
2023-01-05T19:54:17.101Z,30.45
2023-01-05T19:56:45.387Z,31.95
2023-01-05T19:59:18.463Z,32.72
2023-01-05T20:01:46.271Z,33.13
2023-01-05T20:04:14.215Z,36.75
2023-01-05T20:06:44.346Z,29.98
2023-01-05T20:09:15.803Z,25.92
2023-01-05T20:11:45.156Z,28.02
2023-01-05T20:14:18.087Z,32.45
2023-01-05T20:16:49.138Z,36.80
2023-01-05T20:19:17.477Z,25.02
2023-01-05T20:21:45.715Z,28.58
2023-01-05T20:24:15.776Z,30.27
2023-01-05T20:26:45.173Z,27.85
2023-01-05T20:29:14.114Z,25.00
2023-01-05T20:31:47.960Z,23.40
2023-01-05T20:34:21.232Z,30.30
2023-01-05T20:36:49.769Z,22.13
2023-01-05T20:39:19.837Z,24.63
2023-01-05T20:41:49.488Z,27.50
2023-01-05T20:44:20.244Z,23.13
2023-01-05T20:46:49.645Z,28.92
2023-01-05T20:49:17.393Z,24.17
2023-01-05T20:51:45.180Z,22.15
2023-01-05T20:54:13.314Z,19.92
2023-01-05T20:56:43.778Z,25.00
2023-01-05T20:59:17.431Z,20.48
2023-01-05T21:01:45.561Z,23.10
2023-01-05T21:04:13.478Z,21.27
2023-01-05T21:06:41.539Z,19.50
2023-01-05T21:09:10.011Z,25.02
2023-01-05T21:11:38.282Z,20.20
2023-01-05T21:14:06.786Z,24.85
2023-01-05T21:16:38.120Z,26.55
2023-01-05T21:19:07.247Z,30.15
2023-01-05T21:21:36.058Z,28.23
2023-01-05T21:24:07.611Z,28.60
2023-01-05T21:26:35.559Z,25.75
2023-01-05T21:29:05.685Z,26.08
2023-01-05T21:31:34.932Z,24.20
2023-01-05T21:34:02.446Z,22.00
2023-01-05T21:36:32.100Z,22.50
2023-01-05T21:39:05.914Z,20.73
2023-01-05T21:41:53.249Z,22.52
2023-01-05T21:44:21.376Z,17.98
2023-01-05T21:46:49.846Z,19.85
2023-01-05T21:49:18.136Z,19.15
2023-01-05T21:52:04.912Z,15.75
2023-01-05T21:54:51.025Z,18.88
2023-01-05T21:57:18.343Z,14.25
2023-01-05T21:59:45.758Z,16.58
2023-01-05T22:02:15.384Z,16.17
2023-01-05T22:04:43.774Z,17.60
2023-01-05T22:07:11.348Z,11.60
2023-01-05T22:09:39.241Z,12.85
2023-01-05T22:12:09.103Z,12.15
2023-01-05T22:14:37.755Z,12.45
2023-01-05T22:17:06.817Z,14.40
2023-01-05T22:19:35.127Z,15.38
2023-01-05T22:22:02.531Z,12.40
2023-01-05T22:24:29.987Z,9.88
2023-01-05T22:26:57.564Z,11.35
2023-01-05T22:29:24.993Z,9.32
2023-01-05T22:31:52.721Z,11.90
2023-01-05T22:34:20.165Z,11.70
2023-01-05T22:36:47.657Z,9.32
2023-01-05T22:39:15.103Z,10.18
2023-01-05T22:41:42.421Z,11.05
2023-01-05T22:44:09.890Z,9.75
2023-01-05T22:46:37.271Z,10.27
2023-01-05T22:49:04.887Z,10.30
2023-01-05T22:51:35.962Z,9.07
2023-01-05T22:54:04.863Z,8.98
2023-01-05T22:56:33.763Z,8.98
2023-01-05T22:59:01.915Z,8.60
2023-01-05T23:01:36.038Z,8.27
2023-01-05T23:04:05.624Z,9.50
2023-01-05T23:06:33.772Z,10.93
2023-01-05T23:09:02.797Z,8.88
2023-01-05T23:11:33.162Z,7.97
2023-01-05T23:14:01.891Z,7.72
2023-01-05T23:16:29.725Z,8.52
2023-01-05T23:18:57.186Z,9.43
2023-01-05T23:21:25.914Z,6.25
2023-01-05T23:23:55.164Z,8.05
2023-01-05T23:26:23.421Z,7.53
2023-01-05T23:28:50.702Z,6.95
2023-01-05T23:31:19.329Z,8.73
2023-01-05T23:33:47.870Z,7.32
2023-01-05T23:36:16.607Z,6.10
2023-01-05T23:38:44.482Z,6.75
2023-01-05T23:41:13.217Z,5.85
2023-01-05T23:43:42.070Z,6.72
2023-01-05T23:46:12.092Z,6.28
2023-01-05T23:48:40.182Z,6.35
2023-01-05T23:51:13.336Z,7.38
2023-01-05T23:53:42.809Z,5.72
2023-01-05T23:56:13.479Z,7.28
2023-01-05T23:58:41.263Z,5.72
